Flight Track Log - Related Links

Times and Time Zones

All times are in EDT time to prevent confusion due to time zone crossing. See the PDT4647 flight status page for this flight to view local times or setup timezone preferences in your user account.


Time Position Orientation Groundspeed Altitude Reporting Facility
EDT Latitude Longitude Course Direction KTS MPH feet Rate Location/Type
Sat 11:56:16 AM 38.3525 -75.5389 202° Southwest 102 117 1,200  Level Washington Center
Sat 11:57:10 AM 38.3150 -75.5625 206° Southwest 181 208 2,500 1,239 Climbing Washington Center
Sat 11:58:00 AM 38.1645 -75.5914 199° South  Level FlightAware Approximate
Sat 11:59:00 AM 38.1065 -75.6163 199° South  Level FlightAware Approximate
Sat 11:59:20 AM 38.2211 -75.6075 201° Southwest 270 311 5,000  Level Washington Center
Sat 12:00:00 PM 38.0489 -75.6422 202° Southwest  Level FlightAware Approximate
Sat 12:00:20 PM 38.1772 -75.6286 201° Southwest 238 274 5,900  Level Washington Center
Sat 12:01:00 PM 37.9920 -75.6707 202° Southwest  Level FlightAware Approximate
Sat 12:01:21 PM 38.1272 -75.6497 198° South 210 242 6,900  Level Washington Center
Sat 12:02:21 PM 38.0772 -75.6736 201° Southwest 197 227 7,900 1,017 Climbing Washington Center
Sat 12:03:19 PM 38.0208 -75.6997 200° South 197 227 8,900 966 Climbing Washington Center
Sat 12:04:19 PM 37.9667 -75.7208 197° South 197 227 9,800 942 Climbing Washington Center
Sat 12:05:20 PM 37.9144 -75.7469 202° Southwest 197 227 10,800 934 Climbing Washington Center
Sat 12:06:21 PM 37.8622 -75.7733 202° Southwest 202 232 11,700 958 Climbing Washington Center
Sat 12:07:19 PM 37.8100 -75.7967 199° South 202 232 12,700 1,008 Climbing Washington Center
Sat 12:08:20 PM 37.7600 -75.8150 196° South 202 232 13,700 791 Climbing Washington Center
Sat 12:08:50 PM 37.7350 -75.8281 202° Southwest 187 215 13,900 556 Climbing Washington Center
Sat 12:09:14 PM 37.7119 -75.8386 200° South 195 224 14,200 706 Climbing Washington Center
Sat 12:10:15 PM 37.6536 -75.8672 201° Southwest 221 254 14,900 689 Climbing Washington Center
Sat 12:11:16 PM 37.6097 -75.9064 215° Southwest 205 236 15,600 432 Climbing Washington Center
Sat 12:12:20 PM 37.5719 -75.9586 228° Southwest 204 235 15,800 197 Climbing Washington Center
Sat 12:13:18 PM 37.5258 -76.0133 223° Southwest 217 250 16,000 51 Climbing Washington Center
Sat 12:14:18 PM 37.4797 -76.0733 226° Southwest 230 265 15,900  Descending Washington Center
Sat 12:15:19 PM 37.4317 -76.1333 225° Southwest 241 277 16,000 50 Climbing Washington Center
Sat 12:16:19 PM 37.3833 -76.1903 223° Southwest 242 278 16,000  Level Washington Center
Sat 12:17:20 PM 37.3372 -76.2447 223° Southwest 242 278 16,000  Level Washington Center
Sat 12:18:24 PM 37.2825 -76.3150 226° Southwest 250 288 16,000  Level Washington Center
Sat 12:19:22 PM 37.2342 -76.3822 228° Southwest 250 288 16,000  Level Washington Center
Sat 12:20:20 PM 37.1900 -76.4261 218° Southwest 251 289 16,000  Level Washington Center
Sat 12:21:20 PM 37.1417 -76.4856 224° Southwest 271 312 16,000  Level Washington Center
Sat 12:22:21 PM 37.0911 -76.5475 224° Southwest 265 305 16,000  Level Washington Center
Sat 12:23:21 PM 37.0425 -76.6094 225° Southwest 259 298 16,000  Level Washington Center
Sat 12:24:19 PM 36.9961 -76.6686 226° Southwest 248 285 16,000  Level Washington Center
Sat 12:25:20 PM 36.9497 -76.7225 223° Southwest 243 280 16,000  Level Washington Center
Sat 12:26:21 PM 36.9056 -76.7764 224° Southwest 243 280 16,000 50 Level Washington Center
Sat 12:27:19 PM 36.8631 -76.8303 225° Southwest 233 268 16,100 51 Climbing Washington Center
Sat 12:28:19 PM 36.8189 -76.8839 224° Southwest 223 257 16,100  Level Washington Center
Sat 12:29:20 PM 36.7744 -76.9403 225° Southwest 223 257 16,100  Level Washington Center
Sat 12:30:21 PM 36.7278 -76.9964 224° Southwest 223 257 16,100  Level Washington Center
Sat 12:31:19 PM 36.6939 -77.0528 233° Southwest 218 251 16,100  Level Washington Center
Sat 12:32:20 PM 36.6639 -77.1144 239° Southwest 213 245 16,100  Level Washington Center
Sat 12:33:20 PM 36.6358 -77.1786 241° Southwest 213 245 16,100  Level Washington Center
Sat 12:34:21 PM 36.6058 -77.2428 240° Southwest 213 245 16,100  Level Washington Center
Sat 12:35:21 PM 36.5756 -77.3092 240° Southwest 213 245 16,100  Level Washington Center
Sat 12:36:19 PM 36.5475 -77.3733 241° Southwest 213 245 16,100  Level Washington Center
Sat 12:37:20 PM 36.5153 -77.4372 238° Southwest 218 251 16,100  Level Washington Center
Sat 12:38:20 PM 36.4872 -77.5011 241° Southwest 218 251 16,100  Level Washington Center
Sat 12:39:21 PM 36.4569 -77.5597 237° Southwest 218 251 16,100  Level Washington Center
Sat 12:40:20 PM 36.4311 -77.6186 241° Southwest 218 251 16,100  Level Washington Center
Sat 12:41:20 PM 36.4006 -77.6847 240° Southwest 218 251 16,100  Level Washington Center
Sat 12:42:21 PM 36.3725 -77.7511 242° Southwest 218 251 16,100  Level Washington Center
Sat 12:43:21 PM 36.3400 -77.8147 238° Southwest 218 251 16,100  Level Washington Center
Sat 12:44:20 PM 36.3117 -77.8758 240° Southwest 218 251 16,100  Level Washington Center
Sat 12:45:20 PM 36.2833 -77.9394 241° Southwest 218 251 16,100  Level Washington Center
Sat 12:46:21 PM 36.2550 -77.9978 239° Southwest 218 251 16,100  Level Washington Center
Sat 12:47:19 PM 36.2244 -78.0611 239° Southwest 218 251 16,100  Level Washington Center
Sat 12:48:19 PM 36.1961 -78.1169 238° Southwest 208 239 16,100  Level Washington Center
Sat 12:49:20 PM 36.1697 -78.1881 245° Southwest 203 234 16,100  Level Washington Center
Sat 12:50:21 PM 36.1661 -78.2522 266° West 190 219 16,100  Level Washington Center
Sat 12:51:21 PM 36.1625 -78.3192 266° West 195 224 16,100  Level Washington Center
Sat 12:52:19 PM 36.1569 -78.3858 264° West 195 224 16,100  Level Washington Center
Sat 12:53:19 PM 36.1533 -78.4525 266° West 200 230 16,100  Level Washington Center
Sat 12:54:20 PM 36.1494 -78.5167 266° West 200 230 16,100  Level Washington Center
Sat 12:55:21 PM 36.1458 -78.5833 266° West 200 230 16,100  Level Washington Center
Sat 12:56:21 PM 36.1422 -78.6425 266° West 200 230 16,100  Level Washington Center
Sat 12:57:19 PM 36.1361 -78.7169 264° West 200 230 16,100  Level Washington Center
Sat 12:58:19 PM 36.1322 -78.7836 266° West 200 230 16,100 -149 Level Washington Center
Sat 12:59:20 PM 36.1283 -78.8503 266° West 200 230 15,800 -393 Descending Washington Center
Sat 01:00:21 PM 36.1244 -78.9219 266° West 200 230 15,300 -496 Descending Washington Center
Sat 01:01:21 PM 36.1181 -78.9939 264° West 205 236 14,800 -508 Descending Washington Center
Sat 01:02:19 PM 36.1139 -79.0681 266° West 211 243 14,300 -508 Descending Washington Center
Sat 01:03:19 PM 36.1078 -79.1347 264° West 218 251 13,800 -500 Descending Washington Center
Sat 01:05:00 PM 36.0960 -79.2593 263° West  Level FlightAware Approximate
Sat 01:12:00 PM 36.0469 -79.7773 265° West  Level FlightAware Approximate
Sat 01:13:00 PM 36.0416 -79.8515 265° West  Level FlightAware Approximate
Sat 01:14:00 PM 36.0363 -79.9257 265° West  Level FlightAware Approximate
Sat 01:15:00 PM 36.0157 -79.9919 229° Southwest  Level FlightAware Approximate
Sat 01:16:00 PM 35.9764 -80.0482 229° Southwest  Level FlightAware Approximate
Sat 01:17:00 PM 35.9370 -80.1044 229° Southwest  Level FlightAware Approximate
Sat 01:18:00 PM 35.8931 -80.1687 231° Southwest  Level FlightAware Approximate
Sat 01:19:00 PM 35.8498 -80.2336 227° Southwest  Level FlightAware Approximate

Login

Don't have an account? Register now (free) for customized features, flight alerts, and more!